sensor_id;sensor_type;location;lat;lon;timestamp;P1;durP1;ratioP1;P2;durP2;ratioP2
17943;SDS011;9097;47.028;15.444;2023-08-17T00:00:33;4.45;;;3.33;;
17943;SDS011;9097;47.028;15.444;2023-08-17T00:03:36;6.15;;;3.15;;
17943;SDS011;9097;47.028;15.444;2023-08-17T00:06:40;5.47;;;3.38;;
17943;SDS011;9097;47.028;15.444;2023-08-17T00:09:43;4.35;;;3.05;;
17943;SDS011;9097;47.028;15.444;2023-08-17T00:12:45;4.43;;;3.25;;
17943;SDS011;9097;47.028;15.444;2023-08-17T00:15:48;4.75;;;3.28;;
17943;SDS011;9097;47.028;15.444;2023-08-17T00:18:51;4.43;;;2.63;;
17943;SDS011;9097;47.028;15.444;2023-08-17T00:21:55;4.05;;;2.78;;
17943;SDS011;9097;47.028;15.444;2023-08-17T00:24:58;3.47;;;2.67;;
17943;SDS011;9097;47.028;15.444;2023-08-17T00:28:00;5.47;;;3.47;;
17943;SDS011;9097;47.028;15.444;2023-08-17T00:31:03;4.13;;;3.05;;
17943;SDS011;9097;47.028;15.444;2023-08-17T00:34:05;4.30;;;2.80;;
17943;SDS011;9097;47.028;15.444;2023-08-17T00:37:09;3.72;;;2.83;;
17943;SDS011;9097;47.028;15.444;2023-08-17T00:40:12;4.57;;;2.67;;
17943;SDS011;9097;47.028;15.444;2023-08-17T00:43:14;4.70;;;2.95;;
17943;SDS011;9097;47.028;15.444;2023-08-17T00:46:17;4.85;;;3.10;;
17943;SDS011;9097;47.028;15.444;2023-08-17T00:49:22;3.58;;;2.55;;
17943;SDS011;9097;47.028;15.444;2023-08-17T00:52:26;4.60;;;2.90;;
17943;SDS011;9097;47.028;15.444;2023-08-17T00:55:29;5.28;;;2.75;;
17943;SDS011;9097;47.028;15.444;2023-08-17T00:58:31;4.13;;;3.15;;
17943;SDS011;9097;47.028;15.444;2023-08-17T01:01:34;4.40;;;2.95;;
17943;SDS011;9097;47.028;15.444;2023-08-17T01:04:37;4.70;;;2.78;;
17943;SDS011;9097;47.028;15.444;2023-08-17T01:07:41;3.58;;;2.85;;
17943;SDS011;9097;47.028;15.444;2023-08-17T01:10:46;3.92;;;2.67;;
17943;SDS011;9097;47.028;15.444;2023-08-17T01:13:52;3.85;;;2.85;;
17943;SDS011;9097;47.028;15.444;2023-08-17T01:16:56;8.60;;;3.20;;
17943;SDS011;9097;47.028;15.444;2023-08-17T01:20:03;4.97;;;3.05;;
17943;SDS011;9097;47.028;15.444;2023-08-17T01:23:07;3.13;;;2.63;;
17943;SDS011;9097;47.028;15.444;2023-08-17T01:26:11;4.55;;;2.40;;
17943;SDS011;9097;47.028;15.444;2023-08-17T01:29:15;3.60;;;2.83;;
17943;SDS011;9097;47.028;15.444;2023-08-17T01:32:27;4.93;;;3.20;;
17943;SDS011;9097;47.028;15.444;2023-08-17T01:35:34;4.65;;;2.80;;
17943;SDS011;9097;47.028;15.444;2023-08-17T01:38:41;3.75;;;2.63;;
17943;SDS011;9097;47.028;15.444;2023-08-17T01:41:44;3.05;;;2.63;;
17943;SDS011;9097;47.028;15.444;2023-08-17T01:44:48;5.05;;;3.15;;
17943;SDS011;9097;47.028;15.444;2023-08-17T01:47:51;4.63;;;3.10;;
17943;SDS011;9097;47.028;15.444;2023-08-17T01:50:53;5.35;;;3.25;;
17943;SDS011;9097;47.028;15.444;2023-08-17T01:53:57;4.30;;;2.85;;
17943;SDS011;9097;47.028;15.444;2023-08-17T01:57:00;4.68;;;3.08;;
17943;SDS011;9097;47.028;15.444;2023-08-17T02:00:03;3.95;;;3.00;;
17943;SDS011;9097;47.028;15.444;2023-08-17T02:03:06;5.35;;;3.05;;
17943;SDS011;9097;47.028;15.444;2023-08-17T02:06:09;4.95;;;2.72;;
17943;SDS011;9097;47.028;15.444;2023-08-17T02:09:13;4.65;;;2.55;;
17943;SDS011;9097;47.028;15.444;2023-08-17T02:12:15;6.47;;;2.70;;
17943;SDS011;9097;47.028;15.444;2023-08-17T02:15:18;3.67;;;2.78;;
17943;SDS011;9097;47.028;15.444;2023-08-17T02:18:20;3.17;;;2.65;;
17943;SDS011;9097;47.028;15.444;2023-08-17T02:21:23;2.90;;;2.58;;
17943;SDS011;9097;47.028;15.444;2023-08-17T02:24:27;3.97;;;2.80;;
17943;SDS011;9097;47.028;15.444;2023-08-17T02:27:29;4.00;;;2.70;;
17943;SDS011;9097;47.028;15.444;2023-08-17T02:30:32;4.10;;;2.92;;
17943;SDS011;9097;47.028;15.444;2023-08-17T02:33:35;4.70;;;2.95;;
17943;SDS011;9097;47.028;15.444;2023-08-17T02:36:38;7.90;;;3.00;;
17943;SDS011;9097;47.028;15.444;2023-08-17T02:39:42;6.85;;;3.80;;
17943;SDS011;9097;47.028;15.444;2023-08-17T02:42:44;3.47;;;3.05;;
17943;SDS011;9097;47.028;15.444;2023-08-17T02:45:47;6.15;;;3.22;;
17943;SDS011;9097;47.028;15.444;2023-08-17T02:48:49;5.03;;;3.28;;
17943;SDS011;9097;47.028;15.444;2023-08-17T02:51:53;3.38;;;2.80;;
17943;SDS011;9097;47.028;15.444;2023-08-17T02:54:57;5.00;;;3.83;;
17943;SDS011;9097;47.028;15.444;2023-08-17T02:58:00;5.03;;;2.97;;
17943;SDS011;9097;47.028;15.444;2023-08-17T03:01:03;3.78;;;2.38;;
17943;SDS011;9097;47.028;15.444;2023-08-17T03:04:06;5.75;;;3.38;;
17943;SDS011;9097;47.028;15.444;2023-08-17T03:07:09;4.45;;;2.75;;
17943;SDS011;9097;47.028;15.444;2023-08-17T03:10:13;6.07;;;2.95;;
17943;SDS011;9097;47.028;15.444;2023-08-17T03:13:15;5.32;;;3.42;;
17943;SDS011;9097;47.028;15.444;2023-08-17T03:16:18;5.35;;;3.63;;
17943;SDS011;9097;47.028;15.444;2023-08-17T03:19:21;6.28;;;3.65;;
17943;SDS011;9097;47.028;15.444;2023-08-17T03:22:23;5.80;;;3.67;;
17943;SDS011;9097;47.028;15.444;2023-08-17T03:25:27;4.95;;;3.05;;
17943;SDS011;9097;47.028;15.444;2023-08-17T03:28:30;5.53;;;3.72;;
17943;SDS011;9097;47.028;15.444;2023-08-17T03:31:32;5.22;;;3.42;;
17943;SDS011;9097;47.028;15.444;2023-08-17T03:34:35;4.28;;;2.80;;
17943;SDS011;9097;47.028;15.444;2023-08-17T03:37:38;5.30;;;3.28;;
17943;SDS011;9097;47.028;15.444;2023-08-17T03:40:41;4.90;;;2.72;;
17943;SDS011;9097;47.028;15.444;2023-08-17T03:43:44;6.65;;;3.45;;
17943;SDS011;9097;47.028;15.444;2023-08-17T03:46:46;5.97;;;3.80;;
17943;SDS011;9097;47.028;15.444;2023-08-17T03:49:49;5.40;;;3.83;;
17943;SDS011;9097;47.028;15.444;2023-08-17T03:52:51;5.15;;;3.22;;
17943;SDS011;9097;47.028;15.444;2023-08-17T03:55:55;5.75;;;3.50;;
17943;SDS011;9097;47.028;15.444;2023-08-17T03:58:58;5.53;;;3.97;;
17943;SDS011;9097;47.028;15.444;2023-08-17T04:02:01;4.70;;;3.30;;
17943;SDS011;9097;47.028;15.444;2023-08-17T04:05:04;4.80;;;3.72;;
17943;SDS011;9097;47.028;15.444;2023-08-17T04:08:06;4.35;;;3.25;;
17943;SDS011;9097;47.028;15.444;2023-08-17T04:11:10;4.20;;;3.30;;
17943;SDS011;9097;47.028;15.444;2023-08-17T04:14:13;4.82;;;3.03;;
17943;SDS011;9097;47.028;15.444;2023-08-17T04:17:15;4.20;;;2.80;;
17943;SDS011;9097;47.028;15.444;2023-08-17T04:20:18;5.05;;;3.15;;
17943;SDS011;9097;47.028;15.444;2023-08-17T04:23:22;4.88;;;3.20;;
17943;SDS011;9097;47.028;15.444;2023-08-17T04:26:26;5.78;;;3.63;;
17943;SDS011;9097;47.028;15.444;2023-08-17T04:29:28;5.00;;;3.00;;
17943;SDS011;9097;47.028;15.444;2023-08-17T04:32:32;6.97;;;4.13;;
17943;SDS011;9097;47.028;15.444;2023-08-17T04:35:34;3.95;;;3.08;;
17943;SDS011;9097;47.028;15.444;2023-08-17T04:38:37;8.98;;;3.33;;
17943;SDS011;9097;47.028;15.444;2023-08-17T04:41:40;5.45;;;3.35;;
17943;SDS011;9097;47.028;15.444;2023-08-17T04:44:43;5.32;;;3.65;;
17943;SDS011;9097;47.028;15.444;2023-08-17T04:47:46;4.65;;;3.28;;
17943;SDS011;9097;47.028;15.444;2023-08-17T04:50:48;5.60;;;3.45;;
17943;SDS011;9097;47.028;15.444;2023-08-17T04:53:51;5.57;;;3.50;;
17943;SDS011;9097;47.028;15.444;2023-08-17T04:56:56;7.50;;;4.00;;
17943;SDS011;9097;47.028;15.444;2023-08-17T04:59:58;4.03;;;2.78;;
17943;SDS011;9097;47.028;15.444;2023-08-17T05:03:01;3.95;;;2.70;;
17943;SDS011;9097;47.028;15.444;2023-08-17T05:06:03;4.13;;;2.85;;
17943;SDS011;9097;47.028;15.444;2023-08-17T05:09:06;4.93;;;3.33;;
17943;SDS011;9097;47.028;15.444;2023-08-17T05:12:10;5.70;;;3.33;;
17943;SDS011;9097;47.028;15.444;2023-08-17T05:15:13;6.57;;;4.05;;
17943;SDS011;9097;47.028;15.444;2023-08-17T05:18:16;5.85;;;4.00;;
17943;SDS011;9097;47.028;15.444;2023-08-17T05:21:18;7.13;;;3.67;;
17943;SDS011;9097;47.028;15.444;2023-08-17T05:24:21;5.18;;;3.45;;
17943;SDS011;9097;47.028;15.444;2023-08-17T05:27:25;6.70;;;3.50;;
17943;SDS011;9097;47.028;15.444;2023-08-17T05:30:27;6.63;;;3.58;;
17943;SDS011;9097;47.028;15.444;2023-08-17T05:33:30;5.43;;;3.50;;
17943;SDS011;9097;47.028;15.444;2023-08-17T05:36:32;5.05;;;3.38;;
17943;SDS011;9097;47.028;15.444;2023-08-17T05:39:35;4.35;;;2.90;;
17943;SDS011;9097;47.028;15.444;2023-08-17T05:42:39;4.65;;;3.03;;
17943;SDS011;9097;47.028;15.444;2023-08-17T05:45:41;7.32;;;3.85;;
17943;SDS011;9097;47.028;15.444;2023-08-17T05:48:44;8.20;;;4.32;;
17943;SDS011;9097;47.028;15.444;2023-08-17T05:51:46;4.72;;;3.65;;
17943;SDS011;9097;47.028;15.444;2023-08-17T05:54:49;7.43;;;4.57;;
17943;SDS011;9097;47.028;15.444;2023-08-17T05:57:53;9.93;;;4.53;;
17943;SDS011;9097;47.028;15.444;2023-08-17T06:00:59;8.65;;;4.68;;
17943;SDS011;9097;47.028;15.444;2023-08-17T06:04:06;9.02;;;5.10;;
17943;SDS011;9097;47.028;15.444;2023-08-17T06:07:08;5.35;;;3.50;;
17943;SDS011;9097;47.028;15.444;2023-08-17T06:10:11;7.25;;;4.13;;
17943;SDS011;9097;47.028;15.444;2023-08-17T06:13:15;7.10;;;4.38;;
17943;SDS011;9097;47.028;15.444;2023-08-17T06:16:18;9.05;;;4.38;;
17943;SDS011;9097;47.028;15.444;2023-08-17T06:19:20;6.97;;;4.32;;
17943;SDS011;9097;47.028;15.444;2023-08-17T06:22:23;4.38;;;3.10;;
17943;SDS011;9097;47.028;15.444;2023-08-17T06:25:26;4.40;;;2.97;;
17943;SDS011;9097;47.028;15.444;2023-08-17T06:28:30;5.43;;;3.80;;
17943;SDS011;9097;47.028;15.444;2023-08-17T06:31:32;7.15;;;3.92;;
17943;SDS011;9097;47.028;15.444;2023-08-17T06:34:35;7.20;;;4.95;;
17943;SDS011;9097;47.028;15.444;2023-08-17T06:37:37;7.18;;;3.40;;
17943;SDS011;9097;47.028;15.444;2023-08-17T06:40:40;7.63;;;4.57;;
17943;SDS011;9097;47.028;15.444;2023-08-17T06:43:43;7.03;;;3.83;;
17943;SDS011;9097;47.028;15.444;2023-08-17T06:46:46;5.70;;;4.00;;
17943;SDS011;9097;47.028;15.444;2023-08-17T06:49:49;6.22;;;4.05;;
17943;SDS011;9097;47.028;15.444;2023-08-17T06:52:51;5.70;;;3.40;;
17943;SDS011;9097;47.028;15.444;2023-08-17T06:55:54;5.60;;;3.70;;
17943;SDS011;9097;47.028;15.444;2023-08-17T06:58:58;5.32;;;3.40;;
17943;SDS011;9097;47.028;15.444;2023-08-17T07:02:00;8.15;;;4.38;;
17943;SDS011;9097;47.028;15.444;2023-08-17T07:05:03;7.75;;;4.63;;
17943;SDS011;9097;47.028;15.444;2023-08-17T07:08:06;6.20;;;3.63;;
17943;SDS011;9097;47.028;15.444;2023-08-17T07:11:08;6.00;;;3.88;;
17943;SDS011;9097;47.028;15.444;2023-08-17T07:14:12;7.47;;;4.10;;
17943;SDS011;9097;47.028;15.444;2023-08-17T07:17:15;6.15;;;3.50;;
17943;SDS011;9097;47.028;15.444;2023-08-17T07:20:17;6.85;;;4.75;;
17943;SDS011;9097;47.028;15.444;2023-08-17T07:23:20;5.88;;;3.67;;
17943;SDS011;9097;47.028;15.444;2023-08-17T07:26:22;5.78;;;3.83;;
17943;SDS011;9097;47.028;15.444;2023-08-17T07:29:26;6.18;;;4.03;;
17943;SDS011;9097;47.028;15.444;2023-08-17T07:32:29;7.82;;;4.28;;
17943;SDS011;9097;47.028;15.444;2023-08-17T07:35:31;6.18;;;3.63;;
17943;SDS011;9097;47.028;15.444;2023-08-17T07:38:34;7.63;;;4.55;;
17943;SDS011;9097;47.028;15.444;2023-08-17T07:41:36;4.93;;;3.60;;
17943;SDS011;9097;47.028;15.444;2023-08-17T07:44:40;4.82;;;3.00;;
17943;SDS011;9097;47.028;15.444;2023-08-17T07:47:42;8.27;;;4.10;;
17943;SDS011;9097;47.028;15.444;2023-08-17T07:50:47;5.30;;;3.55;;
17943;SDS011;9097;47.028;15.444;2023-08-17T07:53:50;3.70;;;2.92;;
17943;SDS011;9097;47.028;15.444;2023-08-17T07:56:53;6.20;;;4.20;;
17943;SDS011;9097;47.028;15.444;2023-08-17T07:59:57;5.25;;;3.90;;
17943;SDS011;9097;47.028;15.444;2023-08-17T08:02:59;4.60;;;3.15;;
17943;SDS011;9097;47.028;15.444;2023-08-17T08:06:02;4.28;;;2.75;;
17943;SDS011;9097;47.028;15.444;2023-08-17T08:09:04;5.75;;;2.83;;
17943;SDS011;9097;47.028;15.444;2023-08-17T08:12:07;5.70;;;3.55;;
17943;SDS011;9097;47.028;15.444;2023-08-17T08:15:11;6.43;;;3.67;;
17943;SDS011;9097;47.028;15.444;2023-08-17T08:18:13;6.78;;;3.40;;
17943;SDS011;9097;47.028;15.444;2023-08-17T08:21:16;4.25;;;3.35;;
17943;SDS011;9097;47.028;15.444;2023-08-17T08:24:19;4.18;;;3.30;;
17943;SDS011;9097;47.028;15.444;2023-08-17T08:27:21;5.30;;;3.00;;
17943;SDS011;9097;47.028;15.444;2023-08-17T08:30:26;7.00;;;2.97;;
17943;SDS011;9097;47.028;15.444;2023-08-17T08:33:28;3.17;;;2.45;;
17943;SDS011;9097;47.028;15.444;2023-08-17T08:36:31;3.58;;;2.80;;
17943;SDS011;9097;47.028;15.444;2023-08-17T08:39:33;4.43;;;3.33;;
17943;SDS011;9097;47.028;15.444;2023-08-17T08:42:50;3.03;;;2.00;;
17943;SDS011;9097;47.028;15.444;2023-08-17T08:45:54;5.13;;;2.67;;
17943;SDS011;9097;47.028;15.444;2023-08-17T08:48:56;4.30;;;2.65;;
17943;SDS011;9097;47.028;15.444;2023-08-17T08:51:59;3.47;;;2.80;;
17943;SDS011;9097;47.028;15.444;2023-08-17T08:55:08;4.75;;;3.15;;
17943;SDS011;9097;47.028;15.444;2023-08-17T08:58:13;4.45;;;2.72;;
17943;SDS011;9097;47.028;15.444;2023-08-17T09:01:17;4.07;;;2.53;;
17943;SDS011;9097;47.028;15.444;2023-08-17T09:04:20;5.25;;;3.30;;
17943;SDS011;9097;47.028;15.444;2023-08-17T09:07:23;3.63;;;3.22;;
17943;SDS011;9097;47.028;15.444;2023-08-17T09:10:26;6.30;;;3.42;;
17943;SDS011;9097;47.028;15.444;2023-08-17T09:13:28;4.00;;;2.95;;
17943;SDS011;9097;47.028;15.444;2023-08-17T09:16:32;5.25;;;3.38;;
17943;SDS011;9097;47.028;15.444;2023-08-17T09:19:34;5.88;;;3.67;;
17943;SDS011;9097;47.028;15.444;2023-08-17T09:22:38;6.45;;;3.83;;
17943;SDS011;9097;47.028;15.444;2023-08-17T09:25:41;9.05;;;4.00;;
17943;SDS011;9097;47.028;15.444;2023-08-17T09:28:44;4.28;;;3.33;;
17943;SDS011;9097;47.028;15.444;2023-08-17T09:31:47;4.53;;;2.63;;
17943;SDS011;9097;47.028;15.444;2023-08-17T09:34:50;4.45;;;3.20;;
17943;SDS011;9097;47.028;15.444;2023-08-17T09:37:52;5.10;;;3.00;;
17943;SDS011;9097;47.028;15.444;2023-08-17T09:40:56;5.88;;;3.50;;
17943;SDS011;9097;47.028;15.444;2023-08-17T09:43:59;6.22;;;3.38;;
17943;SDS011;9097;47.028;15.444;2023-08-17T09:47:04;3.17;;;2.20;;
17943;SDS011;9097;47.028;15.444;2023-08-17T09:50:08;5.25;;;3.38;;
17943;SDS011;9097;47.028;15.444;2023-08-17T09:53:12;5.43;;;2.78;;
17943;SDS011;9097;47.028;15.444;2023-08-17T09:56:15;4.50;;;3.10;;
17943;SDS011;9097;47.028;15.444;2023-08-17T09:59:18;5.00;;;3.40;;
17943;SDS011;9097;47.028;15.444;2023-08-17T10:02:23;5.78;;;3.40;;
17943;SDS011;9097;47.028;15.444;2023-08-17T10:05:25;3.92;;;2.50;;
17943;SDS011;9097;47.028;15.444;2023-08-17T10:08:30;3.97;;;3.13;;
17943;SDS011;9097;47.028;15.444;2023-08-17T10:11:33;5.22;;;3.13;;
17943;SDS011;9097;47.028;15.444;2023-08-17T10:14:39;4.03;;;3.08;;
17943;SDS011;9097;47.028;15.444;2023-08-17T10:17:50;5.47;;;3.58;;
17943;SDS011;9097;47.028;15.444;2023-08-17T10:20:58;4.95;;;2.97;;
17943;SDS011;9097;47.028;15.444;2023-08-17T10:24:05;4.13;;;2.92;;
17943;SDS011;9097;47.028;15.444;2023-08-17T10:27:08;5.03;;;3.10;;
17943;SDS011;9097;47.028;15.444;2023-08-17T10:30:12;4.07;;;2.95;;
17943;SDS011;9097;47.028;15.444;2023-08-17T10:33:16;4.80;;;3.20;;
17943;SDS011;9097;47.028;15.444;2023-08-17T10:36:19;5.18;;;3.20;;
17943;SDS011;9097;47.028;15.444;2023-08-17T10:39:22;5.35;;;2.97;;
17943;SDS011;9097;47.028;15.444;2023-08-17T10:42:31;3.83;;;3.13;;
17943;SDS011;9097;47.028;15.444;2023-08-17T10:45:34;4.00;;;3.05;;
17943;SDS011;9097;47.028;15.444;2023-08-17T10:48:40;4.97;;;2.75;;
17943;SDS011;9097;47.028;15.444;2023-08-17T10:51:54;4.10;;;2.65;;
17943;SDS011;9097;47.028;15.444;2023-08-17T10:55:03;5.63;;;3.65;;
17943;SDS011;9097;47.028;15.444;2023-08-17T10:58:07;4.28;;;2.72;;
17943;SDS011;9097;47.028;15.444;2023-08-17T11:01:11;5.85;;;3.55;;
17943;SDS011;9097;47.028;15.444;2023-08-17T11:04:17;4.28;;;2.92;;
17943;SDS011;9097;47.028;15.444;2023-08-17T11:07:19;4.72;;;2.90;;
17943;SDS011;9097;47.028;15.444;2023-08-17T11:10:28;5.20;;;3.25;;
17943;SDS011;9097;47.028;15.444;2023-08-17T11:13:31;5.60;;;2.80;;
17943;SDS011;9097;47.028;15.444;2023-08-17T11:16:34;4.55;;;2.47;;
17943;SDS011;9097;47.028;15.444;2023-08-17T11:19:40;3.53;;;2.75;;
17943;SDS011;9097;47.028;15.444;2023-08-17T11:22:43;5.25;;;3.75;;
17943;SDS011;9097;47.028;15.444;2023-08-17T11:25:45;3.20;;;2.45;;
17943;SDS011;9097;47.028;15.444;2023-08-17T11:28:48;3.72;;;2.53;;
17943;SDS011;9097;47.028;15.444;2023-08-17T11:31:51;4.93;;;3.33;;
17943;SDS011;9097;47.028;15.444;2023-08-17T11:34:55;3.65;;;2.70;;
17943;SDS011;9097;47.028;15.444;2023-08-17T11:37:57;3.78;;;3.00;;
17943;SDS011;9097;47.028;15.444;2023-08-17T11:41:00;6.85;;;3.30;;
17943;SDS011;9097;47.028;15.444;2023-08-17T11:44:04;4.00;;;2.72;;
17943;SDS011;9097;47.028;15.444;2023-08-17T11:47:07;7.32;;;3.05;;
17943;SDS011;9097;47.028;15.444;2023-08-17T11:50:11;4.53;;;3.55;;
17943;SDS011;9097;47.028;15.444;2023-08-17T11:53:14;5.55;;;3.13;;
17943;SDS011;9097;47.028;15.444;2023-08-17T11:56:17;4.55;;;2.97;;
17943;SDS011;9097;47.028;15.444;2023-08-17T11:59:19;4.03;;;2.42;;
17943;SDS011;9097;47.028;15.444;2023-08-17T12:02:22;5.55;;;3.35;;
17943;SDS011;9097;47.028;15.444;2023-08-17T12:05:27;3.63;;;2.80;;
17943;SDS011;9097;47.028;15.444;2023-08-17T12:08:32;5.97;;;3.65;;
17943;SDS011;9097;47.028;15.444;2023-08-17T12:11:35;6.30;;;3.83;;
17943;SDS011;9097;47.028;15.444;2023-08-17T12:14:40;6.10;;;3.15;;
17943;SDS011;9097;47.028;15.444;2023-08-17T12:17:46;4.13;;;2.95;;
17943;SDS011;9097;47.028;15.444;2023-08-17T12:20:53;3.70;;;2.85;;
17943;SDS011;9097;47.028;15.444;2023-08-17T12:23:55;3.03;;;2.47;;
17943;SDS011;9097;47.028;15.444;2023-08-17T12:26:59;4.50;;;2.97;;
17943;SDS011;9097;47.028;15.444;2023-08-17T12:30:02;4.82;;;3.08;;
17943;SDS011;9097;47.028;15.444;2023-08-17T12:33:04;4.00;;;2.90;;
17943;SDS011;9097;47.028;15.444;2023-08-17T12:36:08;4.47;;;2.42;;
17943;SDS011;9097;47.028;15.444;2023-08-17T12:39:11;4.82;;;3.17;;
17943;SDS011;9097;47.028;15.444;2023-08-17T12:42:13;4.80;;;3.08;;
17943;SDS011;9097;47.028;15.444;2023-08-17T12:45:16;4.05;;;2.60;;
17943;SDS011;9097;47.028;15.444;2023-08-17T12:48:18;4.80;;;3.55;;
17943;SDS011;9097;47.028;15.444;2023-08-17T12:51:22;4.35;;;2.35;;
17943;SDS011;9097;47.028;15.444;2023-08-17T12:54:25;4.75;;;2.72;;
17943;SDS011;9097;47.028;15.444;2023-08-17T12:57:27;3.40;;;2.42;;
17943;SDS011;9097;47.028;15.444;2023-08-17T13:00:30;3.38;;;2.63;;
17943;SDS011;9097;47.028;15.444;2023-08-17T13:03:33;7.22;;;2.60;;
17943;SDS011;9097;47.028;15.444;2023-08-17T13:06:37;3.75;;;2.40;;
17943;SDS011;9097;47.028;15.444;2023-08-17T13:09:39;2.95;;;2.45;;
17943;SDS011;9097;47.028;15.444;2023-08-17T13:12:42;5.18;;;3.65;;
17943;SDS011;9097;47.028;15.444;2023-08-17T13:15:44;3.35;;;2.58;;
17943;SDS011;9097;47.028;15.444;2023-08-17T13:18:47;2.60;;;1.77;;
17943;SDS011;9097;47.028;15.444;2023-08-17T13:21:51;8.20;;;2.25;;
17943;SDS011;9097;47.028;15.444;2023-08-17T13:24:54;5.18;;;2.80;;
17943;SDS011;9097;47.028;15.444;2023-08-17T13:27:56;3.28;;;2.72;;
17943;SDS011;9097;47.028;15.444;2023-08-17T13:30:59;3.22;;;2.33;;
17943;SDS011;9097;47.028;15.444;2023-08-17T13:34:01;4.13;;;2.58;;
17943;SDS011;9097;47.028;15.444;2023-08-17T13:37:07;3.22;;;2.40;;
17943;SDS011;9097;47.028;15.444;2023-08-17T13:40:09;4.95;;;2.08;;
17943;SDS011;9097;47.028;15.444;2023-08-17T13:43:12;4.80;;;2.38;;
17943;SDS011;9097;47.028;15.444;2023-08-17T13:46:15;4.72;;;2.75;;
17943;SDS011;9097;47.028;15.444;2023-08-17T13:49:17;3.70;;;2.75;;
17943;SDS011;9097;47.028;15.444;2023-08-17T13:52:21;2.42;;;2.03;;
17943;SDS011;9097;47.028;15.444;2023-08-17T13:55:24;3.25;;;2.40;;
17943;SDS011;9097;47.028;15.444;2023-08-17T13:58:26;3.00;;;1.77;;
17943;SDS011;9097;47.028;15.444;2023-08-17T14:01:29;2.58;;;2.03;;
17943;SDS011;9097;47.028;15.444;2023-08-17T14:04:31;2.50;;;1.85;;
17943;SDS011;9097;47.028;15.444;2023-08-17T14:07:35;3.42;;;2.28;;
17943;SDS011;9097;47.028;15.444;2023-08-17T14:10:38;3.05;;;2.08;;
17943;SDS011;9097;47.028;15.444;2023-08-17T14:13:40;2.75;;;2.00;;
17943;SDS011;9097;47.028;15.444;2023-08-17T14:16:42;4.57;;;2.25;;
17943;SDS011;9097;47.028;15.444;2023-08-17T14:19:45;5.72;;;2.20;;
17943;SDS011;9097;47.028;15.444;2023-08-17T14:22:49;2.22;;;2.00;;
17943;SDS011;9097;47.028;15.444;2023-08-17T14:25:51;5.07;;;2.30;;
17943;SDS011;9097;47.028;15.444;2023-08-17T14:28:53;3.05;;;2.20;;
17943;SDS011;9097;47.028;15.444;2023-08-17T14:31:56;2.47;;;1.88;;
17943;SDS011;9097;47.028;15.444;2023-08-17T14:34:58;3.63;;;2.25;;
17943;SDS011;9097;47.028;15.444;2023-08-17T14:38:02;2.38;;;1.83;;
17943;SDS011;9097;47.028;15.444;2023-08-17T14:41:04;4.25;;;2.70;;
17943;SDS011;9097;47.028;15.444;2023-08-17T14:44:08;3.75;;;1.80;;
17943;SDS011;9097;47.028;15.444;2023-08-17T14:47:10;4.13;;;2.38;;
17943;SDS011;9097;47.028;15.444;2023-08-17T14:50:13;3.60;;;2.10;;
17943;SDS011;9097;47.028;15.444;2023-08-17T14:53:17;2.75;;;2.33;;
17943;SDS011;9097;47.028;15.444;2023-08-17T14:56:19;3.63;;;2.25;;
17943;SDS011;9097;47.028;15.444;2023-08-17T14:59:23;2.65;;;2.08;;
17943;SDS011;9097;47.028;15.444;2023-08-17T15:02:25;5.72;;;1.85;;
17943;SDS011;9097;47.028;15.444;2023-08-17T15:05:28;2.30;;;2.10;;
17943;SDS011;9097;47.028;15.444;2023-08-17T15:08:32;3.58;;;2.20;;
17943;SDS011;9097;47.028;15.444;2023-08-17T15:11:35;2.47;;;2.13;;
17943;SDS011;9097;47.028;15.444;2023-08-17T15:14:37;2.67;;;1.90;;
17943;SDS011;9097;47.028;15.444;2023-08-17T15:17:40;3.90;;;2.30;;
17943;SDS011;9097;47.028;15.444;2023-08-17T15:20:42;4.18;;;1.92;;
17943;SDS011;9097;47.028;15.444;2023-08-17T15:23:46;4.97;;;2.42;;
17943;SDS011;9097;47.028;15.444;2023-08-17T15:26:48;3.05;;;2.05;;
17943;SDS011;9097;47.028;15.444;2023-08-17T15:29:51;4.63;;;2.38;;
17943;SDS011;9097;47.028;15.444;2023-08-17T15:32:53;3.22;;;2.20;;
17943;SDS011;9097;47.028;15.444;2023-08-17T15:35:55;2.63;;;1.92;;
17943;SDS011;9097;47.028;15.444;2023-08-17T15:38:59;2.53;;;1.50;;
17943;SDS011;9097;47.028;15.444;2023-08-17T15:42:01;3.25;;;2.05;;
17943;SDS011;9097;47.028;15.444;2023-08-17T15:45:04;2.67;;;1.70;;
17943;SDS011;9097;47.028;15.444;2023-08-17T15:48:09;3.17;;;1.80;;
17943;SDS011;9097;47.028;15.444;2023-08-17T15:51:12;3.35;;;2.50;;
17943;SDS011;9097;47.028;15.444;2023-08-17T15:54:15;3.85;;;2.58;;
17943;SDS011;9097;47.028;15.444;2023-08-17T15:57:18;5.70;;;2.47;;
17943;SDS011;9097;47.028;15.444;2023-08-17T16:00:20;2.95;;;1.98;;
17943;SDS011;9097;47.028;15.444;2023-08-17T16:03:23;3.08;;;1.90;;
17943;SDS011;9097;47.028;15.444;2023-08-17T16:06:25;5.30;;;2.58;;
17943;SDS011;9097;47.028;15.444;2023-08-17T16:09:29;3.00;;;2.05;;
17943;SDS011;9097;47.028;15.444;2023-08-17T16:12:31;2.80;;;2.13;;
17943;SDS011;9097;47.028;15.444;2023-08-17T16:15:33;5.90;;;1.98;;
17943;SDS011;9097;47.028;15.444;2023-08-17T16:18:35;2.63;;;2.08;;
17943;SDS011;9097;47.028;15.444;2023-08-17T16:21:38;3.00;;;2.10;;
17943;SDS011;9097;47.028;15.444;2023-08-17T16:24:42;2.30;;;1.65;;
17943;SDS011;9097;47.028;15.444;2023-08-17T16:27:44;2.65;;;2.22;;
17943;SDS011;9097;47.028;15.444;2023-08-17T16:30:46;3.10;;;2.00;;
17943;SDS011;9097;47.028;15.444;2023-08-17T16:33:48;7.25;;;1.98;;
17943;SDS011;9097;47.028;15.444;2023-08-17T16:36:53;8.60;;;3.05;;
17943;SDS011;9097;47.028;15.444;2023-08-17T16:39:57;2.17;;;1.98;;
17943;SDS011;9097;47.028;15.444;2023-08-17T16:42:59;3.13;;;2.17;;
17943;SDS011;9097;47.028;15.444;2023-08-17T16:46:01;8.25;;;2.10;;
17943;SDS011;9097;47.028;15.444;2023-08-17T16:49:04;11.40;;;2.85;;
17943;SDS011;9097;47.028;15.444;2023-08-17T16:52:07;2.63;;;2.00;;
17943;SDS011;9097;47.028;15.444;2023-08-17T16:55:12;3.67;;;2.13;;
17943;SDS011;9097;47.028;15.444;2023-08-17T16:58:14;2.95;;;2.35;;
17943;SDS011;9097;47.028;15.444;2023-08-17T17:01:16;4.45;;;2.88;;
17943;SDS011;9097;47.028;15.444;2023-08-17T17:04:19;2.72;;;2.38;;
17943;SDS011;9097;47.028;15.444;2023-08-17T17:07:21;2.67;;;2.40;;
17943;SDS011;9097;47.028;15.444;2023-08-17T17:10:25;3.67;;;2.67;;
17943;SDS011;9097;47.028;15.444;2023-08-17T17:13:27;4.55;;;2.78;;
17943;SDS011;9097;47.028;15.444;2023-08-17T17:16:30;4.22;;;2.05;;
17943;SDS011;9097;47.028;15.444;2023-08-17T17:19:34;2.70;;;2.10;;
17943;SDS011;9097;47.028;15.444;2023-08-17T17:22:36;10.57;;;2.67;;
17943;SDS011;9097;47.028;15.444;2023-08-17T17:25:40;3.13;;;2.22;;
17943;SDS011;9097;47.028;15.444;2023-08-17T17:28:43;6.07;;;2.08;;
17943;SDS011;9097;47.028;15.444;2023-08-17T17:31:45;2.58;;;2.13;;
17943;SDS011;9097;47.028;15.444;2023-08-17T17:34:48;3.25;;;2.42;;
17943;SDS011;9097;47.028;15.444;2023-08-17T17:37:50;3.42;;;2.45;;
17943;SDS011;9097;47.028;15.444;2023-08-17T17:40:55;3.25;;;2.67;;
17943;SDS011;9097;47.028;15.444;2023-08-17T17:43:58;6.03;;;2.60;;
17943;SDS011;9097;47.028;15.444;2023-08-17T17:47:00;5.57;;;3.45;;
17943;SDS011;9097;47.028;15.444;2023-08-17T17:50:04;2.85;;;2.22;;
17943;SDS011;9097;47.028;15.444;2023-08-17T17:53:08;4.43;;;2.78;;
17943;SDS011;9097;47.028;15.444;2023-08-17T17:56:13;3.92;;;2.30;;
17943;SDS011;9097;47.028;15.444;2023-08-17T17:59:15;3.60;;;2.70;;
17943;SDS011;9097;47.028;15.444;2023-08-17T18:02:24;3.15;;;2.75;;
17943;SDS011;9097;47.028;15.444;2023-08-17T18:05:27;3.25;;;2.42;;
17943;SDS011;9097;47.028;15.444;2023-08-17T18:08:30;3.28;;;2.67;;
17943;SDS011;9097;47.028;15.444;2023-08-17T18:11:35;4.47;;;2.80;;
17943;SDS011;9097;47.028;15.444;2023-08-17T18:14:38;4.50;;;2.60;;
17943;SDS011;9097;47.028;15.444;2023-08-17T18:17:40;3.60;;;2.38;;
17943;SDS011;9097;47.028;15.444;2023-08-17T18:20:43;4.38;;;2.22;;
17943;SDS011;9097;47.028;15.444;2023-08-17T18:23:45;2.97;;;2.42;;